Time;durP1;ratioP1;P1;durP2;ratioP2;P2;SDS_P1;SDS_P2;PMS_P1;PMS_P2;Temp;Humidity;BMP_temperature;BMP_pressure;BME280_temperature;BME280_humidity;BME280_pressure;Samples;Min_cycle;Max_cycle;Signal;HPM_P1;HPM_P2
2021/12/21 00:02:24;;;;;;;37.07;21.93;;;2.70;99.90;;;;;;5040348;28;20185;-66
2021/12/21 00:04:50;;;;;;;43.93;22.60;;;2.70;99.90;;;;;;5094541;28;20268;-65
2021/12/21 00:07:16;;;;;;;40.17;21.07;;;2.60;99.90;;;;;;5075733;28;20275;-65
2021/12/21 00:09:42;;;;;;;47.27;21.83;;;2.50;99.90;;;;;;5075937;28;20670;-66
2021/12/21 00:12:09;;;;;;;37.43;21.67;;;2.50;99.90;;;;;;5042901;28;20192;-65
2021/12/21 00:25:20;;;;;;;45.60;21.40;;;2.40;99.90;;;;;;5093961;28;20191;-65
2021/12/21 00:27:47;;;;;;;41.70;21.27;;;2.40;99.90;;;;;;5065540;28;20293;-66
2021/12/21 00:30:16;;;;;;;42.30;22.20;;;2.30;99.90;;;;;;5067089;28;20188;-65
2021/12/21 00:32:43;;;;;;;47.50;24.13;;;2.40;99.90;;;;;;5093548;28;20185;-65
2021/12/21 00:35:09;;;;;;;37.83;21.17;;;2.40;99.90;;;;;;5075726;28;20287;-65
2021/12/21 00:37:36;;;;;;;40.67;24.20;;;2.30;99.90;;;;;;5058789;28;20712;-65
2021/12/21 00:40:03;;;;;;;39.67;22.13;;;2.40;99.90;;;;;;5072219;28;20219;-65
2021/12/21 00:42:29;;;;;;;44.73;22.73;;;2.30;99.90;;;;;;5050658;28;20654;-65
2021/12/21 00:44:55;;;;;;;44.93;22.30;;;2.20;99.90;;;;;;5065890;28;20217;-66
2021/12/21 00:47:21;;;;;;;40.07;22.17;;;2.30;99.90;;;;;;5081974;28;20209;-66
2021/12/21 00:49:57;;;;;;;43.77;22.47;;;2.20;99.90;;;;;;5055689;28;20647;-65
2021/12/21 00:52:23;;;;;;;41.33;23.40;;;2.20;99.90;;;;;;5057031;28;20641;-66
2021/12/21 00:54:48;;;;;;;51.83;23.03;;;2.20;99.90;;;;;;5046557;28;20262;-65
2021/12/21 00:57:14;;;;;;;44.70;22.73;;;2.10;99.90;;;;;;5093745;28;20645;-65
2021/12/21 00:59:40;;;;;;;48.60;23.17;;;2.10;99.90;;;;;;5075392;28;20185;-65
2021/12/21 01:02:06;;;;;;;43.67;22.87;;;2.10;99.90;;;;;;5083850;28;20279;-65
2021/12/21 01:04:38;;;;;;;41.97;23.70;;;2.10;99.90;;;;;;5074877;28;20212;-65
2021/12/21 01:07:33;;;;;;;44.93;23.50;;;2.20;99.90;;;;;;5092606;28;20220;-65
2021/12/21 01:12:57;;;;;;;39.90;22.70;;;2.10;99.90;;;;;;5055293;28;20280;-66
2021/12/21 01:15:54;;;;;;;40.83;23.20;;;2.10;99.90;;;;;;5073622;28;20656;-65
2021/12/21 01:18:25;;;;;;;39.40;21.70;;;2.10;99.90;;;;;;5079034;28;20649;-65
2021/12/21 01:21:05;;;;;;;39.07;21.97;;;2.10;99.90;;;;;;5087143;28;20280;-65
2021/12/21 01:36:53;;;;;;;34.07;20.47;;;1.80;99.90;;;;;;5081037;28;20714;-65
2021/12/21 01:42:05;;;;;;;36.57;22.40;;;1.90;99.90;;;;;;5073955;28;20192;-65
2021/12/21 01:49:50;;;;;;;42.93;23.40;;;1.80;99.90;;;;;;5077658;28;20245;-65
2021/12/21 01:52:18;;;;;;;38.30;22.10;;;1.80;99.90;;;;;;5075313;28;20633;-65
2021/12/21 01:54:45;;;;;;;35.70;21.43;;;1.80;99.90;;;;;;5092639;28;20181;-66
2021/12/21 01:57:11;;;;;;;39.10;21.43;;;1.80;99.90;;;;;;5092241;28;20224;-65
2021/12/21 01:59:38;;;;;;;38.63;22.73;;;1.90;99.90;;;;;;5074335;28;20180;-65
2021/12/21 02:02:08;;;;;;;41.53;23.73;;;1.80;99.90;;;;;;5057353;28;20184;-65
2021/12/21 02:04:35;;;;;;;35.20;20.97;;;1.90;99.90;;;;;;5092637;28;20189;-65
2021/12/21 02:07:01;;;;;;;52.10;24.47;;;1.70;99.90;;;;;;5092395;28;20228;-65
2021/12/21 02:09:35;;;;;;;38.40;22.47;;;1.60;99.90;;;;;;5092405;28;20638;-65
2021/12/21 02:12:01;;;;;;;46.50;23.50;;;1.60;99.90;;;;;;5075504;28;20189;-66
2021/12/21 02:14:27;;;;;;;34.80;21.83;;;1.40;99.90;;;;;;5092651;28;20188;-65
2021/12/21 02:19:34;;;;;;;39.83;21.90;;;1.60;99.90;;;;;;5062224;28;20248;-65
2021/12/21 02:22:09;;;;;;;43.07;22.47;;;1.60;99.90;;;;;;5084602;28;20184;-65
2021/12/21 02:24:45;;;;;;;37.60;21.83;;;1.50;99.90;;;;;;5073672;28;20192;-65
2021/12/21 02:27:41;;;;;;;46.00;21.87;;;1.40;99.90;;;;;;5048430;28;20635;-65
2021/12/21 02:30:08;;;;;;;37.87;22.50;;;1.40;99.90;;;;;;5070955;28;20184;-65
2021/12/21 02:32:34;;;;;;;44.00;21.73;;;1.40;99.90;;;;;;5077478;28;20181;-65
2021/12/21 02:35:00;;;;;;;46.60;22.57;;;1.40;99.90;;;;;;5086940;28;20197;-65
2021/12/21 02:37:25;;;;;;;33.40;21.03;;;1.30;99.90;;;;;;5058185;28;20195;-65
2021/12/21 02:39:51;;;;;;;40.13;21.27;;;1.40;99.90;;;;;;5092317;28;20217;-65
2021/12/21 02:42:16;;;;;;;49.50;22.57;;;1.40;99.90;;;;;;5070105;28;20246;-65
2021/12/21 02:44:49;;;;;;;36.10;21.87;;;1.40;99.90;;;;;;5070437;28;20182;-65
2021/12/21 02:47:15;;;;;;;45.43;22.87;;;1.30;99.90;;;;;;5092139;28;20277;-65
2021/12/21 02:49:40;;;;;;;36.47;20.77;;;1.30;99.90;;;;;;5074036;28;20196;-65
2021/12/21 02:52:06;;;;;;;33.97;22.03;;;1.40;99.90;;;;;;5059760;28;20224;-65
2021/12/21 02:54:32;;;;;;;39.13;20.77;;;1.30;99.90;;;;;;5074409;28;20204;-65
2021/12/21 02:56:58;;;;;;;32.37;20.83;;;1.20;99.90;;;;;;5076527;28;20243;-65
2021/12/21 02:59:24;;;;;;;45.57;23.67;;;1.10;99.90;;;;;;5063288;28;20185;-65
2021/12/21 03:01:49;;;;;;;41.30;23.57;;;1.10;99.90;;;;;;5068106;28;20545;-65
2021/12/21 03:04:15;;;;;;;44.00;23.67;;;1.30;99.90;;;;;;5058450;28;20229;-65
2021/12/21 03:11:50;;;;;;;35.63;21.07;;;1.20;99.90;;;;;;5081034;28;20252;-65
2021/12/21 03:14:16;;;;;;;49.40;23.83;;;1.00;99.90;;;;;;5071041;28;20190;-65
2021/12/21 03:16:42;;;;;;;29.83;21.87;;;1.10;99.90;;;;;;5085797;28;20272;-65
2021/12/21 03:19:10;;;;;;;40.27;22.50;;;1.10;99.90;;;;;;5082193;28;20270;-65
2021/12/21 03:21:37;;;;;;;44.53;22.30;;;1.00;99.90;;;;;;5088637;28;20241;-65
2021/12/21 03:24:04;;;;;;;39.87;23.47;;;0.90;99.90;;;;;;5060629;28;20195;-65
2021/12/21 03:26:30;;;;;;;41.23;23.43;;;0.80;99.90;;;;;;5076492;28;20656;-65
2021/12/21 03:28:57;;;;;;;36.43;20.87;;;0.90;99.90;;;;;;5095129;28;20193;-65
2021/12/21 03:31:23;;;;;;;42.07;22.70;;;0.80;99.90;;;;;;5095114;28;20180;-66
2021/12/21 03:33:49;;;;;;;41.60;22.50;;;0.70;99.90;;;;;;5076976;28;20641;-65
2021/12/21 03:36:16;;;;;;;40.03;23.00;;;0.70;99.90;;;;;;5068237;28;20238;-65
2021/12/21 03:38:52;;;;;;;34.90;20.63;;;0.60;99.90;;;;;;5076256;28;20199;-65
2021/12/21 03:41:19;;;;;;;47.87;21.93;;;0.60;99.90;;;;;;5094547;28;20324;-65
2021/12/21 03:43:46;;;;;;;47.67;24.07;;;0.70;99.90;;;;;;5077076;28;20228;-65
2021/12/21 03:46:14;;;;;;;37.97;22.70;;;0.80;99.90;;;;;;5063790;28;20271;-66
2021/12/21 03:48:45;;;;;;;38.60;23.53;;;0.70;99.90;;;;;;5041443;28;20536;-65
2021/12/21 03:51:11;;;;;;;33.90;22.37;;;0.70;99.90;;;;;;5076133;28;20180;-65
2021/12/21 03:53:37;;;;;;;34.13;21.10;;;0.40;99.90;;;;;;5057854;28;20191;-66
2021/12/21 03:56:20;;;;;;;43.87;22.10;;;0.30;99.90;;;;;;5094752;28;20175;-65
2021/12/21 03:58:46;;;;;;;41.67;21.30;;;0.40;99.90;;;;;;5080429;28;20203;-66
2021/12/21 04:01:12;;;;;;;43.97;23.93;;;0.30;99.90;;;;;;5057302;28;20197;-65
2021/12/21 04:03:38;;;;;;;36.83;21.63;;;0.20;99.90;;;;;;5071547;28;20186;-65
2021/12/21 04:06:03;;;;;;;30.73;19.60;;;0.10;99.90;;;;;;5090077;28;20269;-65
2021/12/21 04:08:29;;;;;;;38.17;21.67;;;0.00;99.90;;;;;;5076056;28;20677;-65
2021/12/21 04:10:55;;;;;;;46.33;23.60;;;0.00;99.90;;;;;;5075952;28;20582;-65
2021/12/21 04:13:20;;;;;;;42.93;21.67;;;0.20;99.90;;;;;;5059552;28;20310;-65
2021/12/21 04:15:50;;;;;;;33.13;20.63;;;0.30;99.90;;;;;;5094319;28;20654;-65
2021/12/21 04:18:19;;;;;;;36.13;20.03;;;0.30;99.90;;;;;;5086275;28;20179;-65
2021/12/21 04:20:45;;;;;;;39.27;21.83;;;0.30;99.90;;;;;;5080340;28;20703;-65
2021/12/21 04:23:11;;;;;;;37.57;21.07;;;0.40;99.90;;;;;;5059305;28;20208;-66
2021/12/21 04:25:37;;;;;;;38.57;21.43;;;0.30;99.90;;;;;;5075686;28;20188;-67
2021/12/21 04:28:03;;;;;;;32.53;20.57;;;0.30;99.90;;;;;;5093432;28;20240;-66
2021/12/21 04:30:29;;;;;;;43.37;20.80;;;0.30;99.90;;;;;;5072645;28;20199;-65
2021/12/21 04:32:54;;;;;;;37.87;20.23;;;0.20;99.90;;;;;;5064479;28;20199;-65
2021/12/21 04:35:21;;;;;;;38.33;20.67;;;0.30;99.90;;;;;;5066759;28;20546;-66
2021/12/21 04:37:59;;;;;;;41.73;21.40;;;0.30;99.90;;;;;;5039277;28;20288;-65
2021/12/21 04:40:45;;;;;;;34.83;19.57;;;0.20;99.90;;;;;;5056233;28;20176;-65
2021/12/21 04:43:11;;;;;;;42.83;21.37;;;0.20;99.90;;;;;;5093449;28;20217;-65
2021/12/21 04:45:37;;;;;;;35.50;21.87;;;0.20;99.90;;;;;;5058908;28;20615;-65
2021/12/21 04:48:03;;;;;;;44.93;21.93;;;0.20;99.90;;;;;;5075505;28;20236;-65
2021/12/21 04:50:29;;;;;;;39.40;22.00;;;0.10;99.90;;;;;;5058832;28;20258;-65
2021/12/21 04:52:54;;;;;;;43.97;21.87;;;0.10;99.90;;;;;;5075439;28;20521;-65
2021/12/21 04:55:20;;;;;;;34.17;19.47;;;0.10;99.90;;;;;;5093055;28;20238;-65
2021/12/21 04:57:46;;;;;;;35.10;20.00;;;0.00;99.90;;;;;;5041338;28;20196;-65
2021/12/21 05:00:13;;;;;;;33.90;21.80;;;0.10;99.90;;;;;;5075271;28;20650;-66
2021/12/21 05:02:39;;;;;;;43.20;21.43;;;0.00;99.90;;;;;;5077363;28;20189;-65
2021/12/21 05:05:06;;;;;;;35.97;22.10;;;0.10;99.90;;;;;;5087575;28;20192;-66
2021/12/21 05:07:34;;;;;;;38.70;20.73;;;0.20;99.90;;;;;;5093333;28;20319;-65
2021/12/21 05:10:02;;;;;;;39.17;19.80;;;0.30;99.90;;;;;;5075599;28;20337;-65
2021/12/21 05:12:28;;;;;;;36.83;19.73;;;0.30;99.90;;;;;;5074224;28;20188;-65
2021/12/21 05:14:55;;;;;;;36.13;20.40;;;0.20;99.90;;;;;;5042973;28;20193;-66
2021/12/21 05:17:21;;;;;;;33.03;21.30;;;0.20;99.90;;;;;;5086324;28;20189;-65
2021/12/21 05:19:47;;;;;;;37.97;22.17;;;0.20;99.90;;;;;;5089573;28;20698;-67
2021/12/21 05:22:15;;;;;;;28.13;18.83;;;0.30;99.90;;;;;;5073875;28;20284;-65
2021/12/21 05:24:41;;;;;;;38.93;20.33;;;0.40;99.90;;;;;;5055935;28;20630;-66
2021/12/21 05:27:07;;;;;;;38.03;20.33;;;0.40;99.90;;;;;;5091713;28;20612;-66
2021/12/21 05:29:32;;;;;;;43.57;20.73;;;0.40;99.90;;;;;;5072099;28;20585;-65
2021/12/21 05:31:59;;;;;;;33.93;21.73;;;0.30;99.90;;;;;;5055849;28;20192;-65
2021/12/21 05:34:26;;;;;;;40.10;20.50;;;0.10;99.90;;;;;;5080519;28;20241;-65
2021/12/21 05:36:51;;;;;;;34.43;20.00;;;0.00;99.90;;;;;;5092676;28;20193;-65
2021/12/21 05:39:21;;;;;;;38.03;22.17;;;-0.20;99.90;;;;;;5058051;28;20188;-65
2021/12/21 05:41:52;;;;;;;39.20;21.73;;;-0.30;99.90;;;;;;5075129;28;20184;-66
2021/12/21 05:44:25;;;;;;;54.03;22.30;;;-0.20;99.90;;;;;;5078390;28;20169;-65
2021/12/21 05:46:52;;;;;;;46.63;21.67;;;-0.10;99.90;;;;;;5085150;28;20212;-65
2021/12/21 05:49:20;;;;;;;33.93;19.60;;;-0.10;99.90;;;;;;5073989;28;20219;-65
2021/12/21 05:51:47;;;;;;;44.23;20.50;;;-0.10;99.90;;;;;;5075059;28;20185;-65
2021/12/21 05:54:14;;;;;;;37.40;20.67;;;-0.30;99.90;;;;;;5066084;28;20192;-66
2021/12/21 05:56:40;;;;;;;34.50;19.93;;;-0.40;99.90;;;;;;5088245;28;20209;-65
2021/12/21 05:59:06;;;;;;;38.87;20.73;;;-0.50;99.90;;;;;;5092774;28;20188;-65
2021/12/21 06:01:33;;;;;;;39.10;20.27;;;-0.60;99.90;;;;;;5041618;28;20193;-65
2021/12/21 06:04:00;;;;;;;34.27;20.07;;;-0.70;99.90;;;;;;5059989;28;20192;-65
2021/12/21 06:06:26;;;;;;;37.07;19.53;;;-0.70;99.90;;;;;;5067479;28;20192;-66
2021/12/21 06:08:54;;;;;;;32.83;18.13;;;-0.60;99.90;;;;;;5074321;28;20204;-65
2021/12/21 06:11:22;;;;;;;29.03;18.80;;;-0.50;99.90;;;;;;5071120;28;20193;-65
2021/12/21 06:27:10;;;;;;;36.60;19.00;;;-0.60;99.90;;;;;;5079688;28;20231;-66
2021/12/21 06:29:36;;;;;;;34.27;19.27;;;-0.70;99.90;;;;;;5060976;28;20180;-65
2021/12/21 06:32:03;;;;;;;29.93;17.87;;;-0.80;99.90;;;;;;5096017;28;20189;-65
2021/12/21 06:34:29;;;;;;;38.57;18.90;;;-0.80;99.90;;;;;;5061419;28;20206;-67
2021/12/21 06:36:55;;;;;;;36.03;18.57;;;-0.80;99.90;;;;;;5044969;28;20184;-67
2021/12/21 06:39:20;;;;;;;29.83;18.53;;;-0.80;99.90;;;;;;5061188;28;20645;-65
2021/12/21 06:41:46;;;;;;;28.70;17.93;;;-0.80;99.90;;;;;;5077377;28;20590;-66
2021/12/21 06:44:14;;;;;;;35.57;18.27;;;-0.70;99.90;;;;;;5058266;28;20209;-66
2021/12/21 06:47:08;;;;;;;26.80;17.27;;;-0.70;99.90;;;;;;5093438;28;20220;-67
2021/12/21 06:52:19;;;;;;;36.30;19.40;;;-0.70;99.90;;;;;;5095954;28;20272;-66
2021/12/21 06:54:44;;;;;;;29.80;16.73;;;-0.80;99.90;;;;;;5077277;28;20276;-65
2021/12/21 06:57:10;;;;;;;22.57;16.13;;;-0.70;99.90;;;;;;5060946;28;20271;-65
2021/12/21 06:59:36;;;;;;;33.40;17.80;;;-0.60;99.90;;;;;;5061136;28;20613;-65
2021/12/21 07:02:02;;;;;;;40.50;18.30;;;-0.50;99.90;;;;;;5082489;28;20280;-66
2021/12/21 07:04:28;;;;;;;31.70;19.10;;;-0.30;99.90;;;;;;5070976;28;20695;-66
2021/12/21 07:06:55;;;;;;;28.90;18.50;;;-0.40;99.90;;;;;;5049550;28;20229;-67
2021/12/21 07:09:28;;;;;;;35.13;18.00;;;-0.40;99.90;;;;;;5066467;28;20255;-66
2021/12/21 07:12:18;;;;;;;26.40;18.50;;;-0.50;99.90;;;;;;5058586;28;20185;-65
2021/12/21 07:20:19;;;;;;;46.17;19.17;;;-0.80;99.90;;;;;;5029856;28;20197;-66
2021/12/21 07:22:45;;;;;;;30.00;18.20;;;-0.90;99.90;;;;;;5075572;28;20661;-65
2021/12/21 07:25:11;;;;;;;38.17;18.47;;;-0.90;99.90;;;;;;5087097;28;20212;-66
2021/12/21 07:27:37;;;;;;;30.37;18.07;;;-0.80;99.90;;;;;;5060009;28;20213;-63
2021/12/21 07:30:05;;;;;;;30.23;16.30;;;-0.70;99.90;;;;;;5072474;28;20189;-66
2021/12/21 07:32:31;;;;;;;26.30;17.97;;;-0.70;99.90;;;;;;5094983;28;20191;-68
2021/12/21 07:34:57;;;;;;;28.73;17.20;;;-0.80;99.90;;;;;;5060515;28;20583;-67
2021/12/21 07:37:25;;;;;;;27.77;17.70;;;-0.70;99.90;;;;;;5063237;28;20185;-66
2021/12/21 07:39:51;;;;;;;32.93;18.37;;;-0.70;99.90;;;;;;5051969;28;20178;-67
2021/12/21 07:42:17;;;;;;;34.07;18.33;;;-0.70;99.90;;;;;;5075737;28;20272;-67
2021/12/21 07:44:43;;;;;;;37.40;21.23;;;-0.50;99.90;;;;;;5085043;28;20184;-67
2021/12/21 07:47:08;;;;;;;42.00;21.30;;;-0.20;99.90;;;;;;5076726;28;20212;-67
2021/12/21 07:49:34;;;;;;;38.63;20.73;;;-0.10;99.90;;;;;;5059463;28;20263;-67
2021/12/21 07:52:00;;;;;;;34.10;18.03;;;0.00;99.90;;;;;;5095321;28;20180;-65
2021/12/21 07:54:26;;;;;;;36.83;21.77;;;-0.20;99.90;;;;;;5076551;28;20586;-67
2021/12/21 07:56:51;;;;;;;32.90;20.50;;;-0.20;99.90;;;;;;5042831;28;20192;-65
2021/12/21 07:59:17;;;;;;;36.63;21.23;;;-0.30;99.90;;;;;;5084488;28;20200;-67
2021/12/21 08:01:44;;;;;;;38.20;21.60;;;-0.20;99.90;;;;;;5067616;28;20180;-68
2021/12/21 08:04:10;;;;;;;29.30;19.40;;;-0.40;99.90;;;;;;5086527;28;20561;-70
2021/12/21 08:06:36;;;;;;;45.10;19.83;;;-0.40;99.90;;;;;;5090013;28;20188;-67
2021/12/21 08:09:04;;;;;;;38.63;20.43;;;-0.40;99.90;;;;;;5072474;28;20231;-67
2021/12/21 08:14:03;;;;;;;33.30;19.97;;;-0.60;99.90;;;;;;5079758;28;20201;-68
2021/12/21 08:16:30;;;;;;;28.23;19.73;;;-0.90;99.90;;;;;;5086712;28;20185;-68
2021/12/21 08:18:56;;;;;;;33.00;20.60;;;-1.10;99.90;;;;;;5065773;28;20185;-66
2021/12/21 08:21:24;;;;;;;32.10;19.93;;;-1.20;99.90;;;;;;5071045;28;20181;-65
2021/12/21 08:23:50;;;;;;;41.27;18.13;;;-1.30;99.90;;;;;;5048947;28;20198;-68
2021/12/21 08:26:19;;;;;;;34.47;18.77;;;-1.30;99.90;;;;;;5062342;28;20588;-67
2021/12/21 08:28:44;;;;;;;29.50;18.70;;;-1.20;99.90;;;;;;5058606;28;20227;-68
2021/12/21 08:31:13;;;;;;;35.53;20.37;;;-1.20;99.90;;;;;;5093484;28;20185;-68
2021/12/21 08:33:41;;;;;;;35.93;20.93;;;-1.30;99.90;;;;;;5059525;28;20187;-68
2021/12/21 08:36:09;;;;;;;43.13;21.57;;;-1.30;99.90;;;;;;5075809;28;20192;-68
2021/12/21 08:38:37;;;;;;;30.77;18.27;;;-1.20;99.90;;;;;;5071203;28;20642;-67
2021/12/21 08:41:04;;;;;;;40.73;21.07;;;-1.20;99.90;;;;;;4733868;28;9999977;-66
2021/12/21 08:43:32;;;;;;;35.43;20.83;;;-1.10;99.90;;;;;;5085611;28;20177;-66
2021/12/21 08:45:59;;;;;;;35.40;19.17;;;-1.00;99.90;;;;;;5060047;28;20275;-65
2021/12/21 08:48:25;;;;;;;33.90;19.87;;;-0.90;99.90;;;;;;5064050;28;20223;-67
2021/12/21 08:50:55;;;;;;;44.73;19.80;;;-0.80;99.90;;;;;;5067546;28;20236;-68
2021/12/21 08:53:25;;;;;;;34.47;19.47;;;-0.80;99.90;;;;;;5067505;28;20512;-67
2021/12/21 08:55:52;;;;;;;27.73;19.23;;;-0.80;99.90;;;;;;5055276;28;20273;-68
2021/12/21 08:58:21;;;;;;;36.23;19.13;;;-0.80;99.90;;;;;;5051389;28;20219;-68
2021/12/21 09:00:48;;;;;;;33.23;17.60;;;-0.90;99.90;;;;;;5067917;28;20181;-68
2021/12/21 09:03:14;;;;;;;30.07;17.77;;;-0.90;99.90;;;;;;5059867;28;20223;-71
2021/12/21 09:05:40;;;;;;;31.57;20.17;;;-0.80;99.90;;;;;;5066033;28;20212;-68
2021/12/21 09:08:08;;;;;;;34.43;20.23;;;-0.40;99.90;;;;;;5085582;28;20809;-66
2021/12/21 09:10:35;;;;;;;34.50;19.77;;;-0.20;99.90;;;;;;5071632;28;20188;-71
2021/12/21 09:13:01;;;;;;;43.23;19.23;;;-0.20;99.90;;;;;;5069809;28;20611;-69
2021/12/21 09:15:28;;;;;;;36.20;17.97;;;-0.50;99.90;;;;;;5056094;28;20188;-66
2021/12/21 09:17:54;;;;;;;27.97;17.73;;;-0.70;99.90;;;;;;5090350;28;20196;-66
2021/12/21 09:20:23;;;;;;;28.10;19.70;;;-0.80;99.90;;;;;;5047764;28;20582;-67
2021/12/21 09:22:50;;;;;;;26.03;18.00;;;-0.90;99.90;;;;;;5090720;28;20184;-66
2021/12/21 09:25:16;;;;;;;31.30;18.67;;;-0.90;99.90;;;;;;5063728;28;20180;-65
2021/12/21 09:27:42;;;;;;;39.77;20.27;;;-0.80;99.90;;;;;;5074793;28;20212;-64
2021/12/21 09:30:11;;;;;;;36.23;18.77;;;-0.80;99.90;;;;;;5083423;28;20189;-64
2021/12/21 09:32:37;;;;;;;31.63;18.20;;;-0.60;99.90;;;;;;5077878;28;20267;-65
2021/12/21 09:35:04;;;;;;;27.77;18.63;;;-0.50;99.90;;;;;;5063469;28;20185;-65
2021/12/21 09:37:31;;;;;;;36.47;20.13;;;-0.50;99.90;;;;;;5073277;28;20637;-65
2021/12/21 09:39:57;;;;;;;31.13;18.77;;;-0.40;99.90;;;;;;5059725;28;20195;-65
2021/12/21 09:42:25;;;;;;;31.90;19.33;;;0.00;99.90;;;;;;5089580;28;20181;-66
2021/12/21 09:44:52;;;;;;;38.23;20.10;;;0.10;99.90;;;;;;5083934;28;20256;-65
2021/12/21 09:47:18;;;;;;;37.87;19.97;;;0.20;99.90;;;;;;5041418;28;20208;-65
2021/12/21 09:49:46;;;;;;;28.47;18.83;;;0.10;99.90;;;;;;5092806;28;20263;-65
2021/12/21 09:52:14;;;;;;;33.70;20.47;;;-0.20;99.90;;;;;;5074147;28;20742;-65
2021/12/21 09:54:40;;;;;;;30.33;19.40;;;-0.40;99.90;;;;;;5074965;28;20272;-65
2021/12/21 09:57:07;;;;;;;36.53;19.13;;;-0.50;99.90;;;;;;5092771;28;20191;-64
2021/12/21 09:59:33;;;;;;;39.97;19.90;;;-0.40;99.90;;;;;;5050340;28;20189;-65
2021/12/21 10:01:59;;;;;;;24.73;18.20;;;-0.20;99.90;;;;;;5069147;28;20191;-63
2021/12/21 10:04:26;;;;;;;38.00;19.43;;;-0.30;99.90;;;;;;5078808;28;20634;-63
2021/12/21 10:06:54;;;;;;;37.03;20.03;;;-0.20;99.90;;;;;;5068826;28;20630;-65
2021/12/21 10:09:24;;;;;;;36.43;20.43;;;-0.20;99.90;;;;;;5059452;28;20246;-64
2021/12/21 10:11:51;;;;;;;37.57;23.50;;;-0.10;99.90;;;;;;5071139;28;20213;-65
2021/12/21 10:14:18;;;;;;;33.27;19.03;;;0.00;99.90;;;;;;5085571;28;20182;-65
2021/12/21 10:16:47;;;;;;;37.27;19.80;;;0.30;99.90;;;;;;5068376;28;20282;-65
2021/12/21 10:19:23;;;;;;;34.37;19.93;;;0.20;99.90;;;;;;5076519;28;20192;-65
2021/12/21 10:21:50;;;;;;;37.63;20.70;;;0.10;99.90;;;;;;5077971;28;20173;-65
2021/12/21 10:24:26;;;;;;;33.00;18.87;;;0.10;99.90;;;;;;5097017;28;20227;-65
2021/12/21 10:26:53;;;;;;;40.07;21.27;;;0.20;99.90;;;;;;5060943;28;20299;-64
2021/12/21 10:29:19;;;;;;;40.93;20.93;;;0.50;99.90;;;;;;5078304;28;20184;-65
2021/12/21 10:31:48;;;;;;;34.47;21.93;;;0.70;99.90;;;;;;5078236;28;20184;-64
2021/12/21 10:34:18;;;;;;;36.17;20.93;;;1.00;99.90;;;;;;5077995;28;20220;-65
2021/12/21 10:36:50;;;;;;;37.70;20.53;;;0.90;99.90;;;;;;5078974;28;20192;-64
2021/12/21 10:39:28;;;;;;;29.83;18.97;;;0.50;99.90;;;;;;5091107;28;20190;-64
2021/12/21 10:41:59;;;;;;;31.43;19.60;;;0.30;99.90;;;;;;5073007;28;20183;-64
2021/12/21 10:44:25;;;;;;;32.53;19.90;;;0.10;99.90;;;;;;5096393;28;20184;-64
2021/12/21 10:46:53;;;;;;;30.70;18.47;;;0.20;99.90;;;;;;5050506;28;20800;-64
2021/12/21 10:49:21;;;;;;;37.53;21.57;;;0.20;99.90;;;;;;5059135;28;20186;-65
2021/12/21 10:52:04;;;;;;;39.47;23.97;;;0.20;99.90;;;;;;5092577;28;20523;-64
2021/12/21 10:54:33;;;;;;;39.17;22.73;;;0.70;99.90;;;;;;5077422;28;20176;-64
2021/12/21 10:57:06;;;;;;;46.03;21.23;;;0.60;99.90;;;;;;5074351;28;20246;-64
2021/12/21 10:59:33;;;;;;;34.10;20.77;;;0.40;99.90;;;;;;5076804;28;20181;-64
2021/12/21 11:02:11;;;;;;;36.30;22.07;;;0.40;99.90;;;;;;5076505;28;20198;-64
2021/12/21 11:04:43;;;;;;;38.37;21.80;;;0.50;99.90;;;;;;5064045;28;20181;-64
2021/12/21 11:07:34;;;;;;;34.20;20.57;;;0.60;99.90;;;;;;5074359;28;20783;-64
2021/12/21 11:10:26;;;;;;;30.80;19.10;;;0.60;99.90;;;;;;5076564;28;20706;-64
2021/12/21 11:12:59;;;;;;;36.83;19.80;;;0.80;99.90;;;;;;5068981;28;20333;-65
2021/12/21 11:15:40;;;;;;;28.63;19.57;;;0.90;99.90;;;;;;5090836;28;20188;-65
2021/12/21 11:18:09;;;;;;;32.70;19.87;;;0.90;99.90;;;;;;5076055;28;20204;-65
2021/12/21 11:20:37;;;;;;;34.27;21.50;;;1.00;99.90;;;;;;5058444;28;20195;-64
2021/12/21 11:23:06;;;;;;;34.43;21.10;;;1.10;99.90;;;;;;5043315;28;20665;-64
2021/12/21 11:25:34;;;;;;;38.47;21.37;;;1.00;99.90;;;;;;5076548;28;20196;-65
2021/12/21 11:28:02;;;;;;;34.37;22.60;;;0.90;99.90;;;;;;5060261;28;20301;-64
2021/12/21 11:30:28;;;;;;;28.97;20.53;;;1.20;99.90;;;;;;5060705;28;20535;-64
2021/12/21 11:32:56;;;;;;;32.60;21.57;;;1.60;99.90;;;;;;5095029;28;20184;-64
2021/12/21 11:37:54;;;;;;;35.73;22.60;;;1.80;99.90;;;;;;5077738;28;20672;-64
2021/12/21 11:40:24;;;;;;;27.83;19.43;;;1.50;99.90;;;;;;5076867;28;20181;-64
2021/12/21 11:43:02;;;;;;;29.63;19.70;;;1.30;99.90;;;;;;5077049;28;20226;-64
2021/12/21 11:45:46;;;;;;;33.77;19.43;;;1.20;99.90;;;;;;5075331;28;20220;-64
2021/12/21 11:48:41;;;;;;;33.73;19.80;;;1.20;99.90;;;;;;5065366;28;20608;-64
2021/12/21 11:51:10;;;;;;;32.93;18.93;;;1.20;99.90;;;;;;5084504;28;20169;-65
2021/12/21 11:53:37;;;;;;;32.23;20.07;;;1.30;99.90;;;;;;5090383;28;20528;-64
2021/12/21 11:56:04;;;;;;;30.80;19.50;;;1.30;99.90;;;;;;5066799;28;20189;-64
2021/12/21 11:58:35;;;;;;;33.30;19.63;;;1.30;99.90;;;;;;5094662;28;20185;-64
2021/12/21 12:01:06;;;;;;;29.23;18.17;;;1.50;99.90;;;;;;5094926;28;20184;-64
2021/12/21 12:03:37;;;;;;;26.47;16.63;;;1.60;99.90;;;;;;5077614;28;20638;-64
2021/12/21 12:06:12;;;;;;;26.80;17.90;;;1.60;99.90;;;;;;5057158;28;20181;-64
2021/12/21 12:08:43;;;;;;;25.17;16.90;;;1.60;99.90;;;;;;5087166;28;20571;-64
2021/12/21 12:11:20;;;;;;;25.70;17.90;;;1.70;99.90;;;;;;5062778;28;20657;-64
2021/12/21 12:13:46;;;;;;;31.67;18.17;;;1.60;99.90;;;;;;5045082;28;20219;-64
2021/12/21 12:16:14;;;;;;;25.90;18.93;;;1.70;99.90;;;;;;5058903;28;21936;-64
2021/12/21 12:18:46;;;;;;;33.93;18.70;;;1.70;99.90;;;;;;5059007;28;20232;-64
2021/12/21 12:21:20;;;;;;;34.13;18.53;;;1.80;99.90;;;;;;5079116;28;20609;-64
2021/12/21 12:24:00;;;;;;;23.53;19.23;;;1.90;99.90;;;;;;5092639;28;20592;-64
2021/12/21 12:26:35;;;;;;;25.53;17.87;;;2.10;99.90;;;;;;5078619;28;20169;-64
2021/12/21 12:29:17;;;;;;;32.67;17.50;;;2.40;99.90;;;;;;5075853;28;20632;-64
2021/12/21 12:31:58;;;;;;;24.97;18.43;;;2.50;99.90;;;;;;5094204;28;20172;-64
2021/12/21 12:34:28;;;;;;;32.63;18.27;;;2.30;99.90;;;;;;5094115;28;20238;-65
2021/12/21 12:36:55;;;;;;;24.70;17.67;;;2.20;99.90;;;;;;5075490;28;20188;-61
2021/12/21 12:39:29;;;;;;;21.10;15.00;;;2.20;99.90;;;;;;5067122;28;20533;-61
2021/12/21 12:42:04;;;;;;;31.30;18.53;;;2.00;99.90;;;;;;5090062;28;20180;-61
2021/12/21 12:44:30;;;;;;;28.00;17.80;;;2.40;99.90;;;;;;5090256;28;20259;-61
2021/12/21 12:47:04;;;;;;;24.17;16.87;;;2.40;99.90;;;;;;5082236;28;20303;-61
2021/12/21 12:49:32;;;;;;;27.63;18.00;;;2.70;99.90;;;;;;5068715;28;20180;-61
2021/12/21 12:52:27;;;;;;;27.03;19.03;;;2.60;99.90;;;;;;5085029;28;20597;-61
2021/12/21 12:54:59;;;;;;;27.27;18.40;;;2.40;99.90;;;;;;5093470;28;20238;-61
2021/12/21 12:57:27;;;;;;;28.70;18.10;;;2.30;99.90;;;;;;5090191;28;20180;-62
2021/12/21 12:59:56;;;;;;;28.23;17.03;;;2.30;99.90;;;;;;5092661;28;20208;-63
2021/12/21 13:02:23;;;;;;;25.23;17.10;;;2.20;99.90;;;;;;5093233;28;20608;-62
2021/12/21 13:04:49;;;;;;;33.10;17.03;;;2.20;99.90;;;;;;5075285;28;20226;-62
2021/12/21 13:07:32;;;;;;;24.30;17.23;;;2.20;99.90;;;;;;5091694;28;20281;-62
2021/12/21 13:10:09;;;;;;;29.87;17.53;;;2.30;99.90;;;;;;5084506;28;20236;-62
2021/12/21 13:12:35;;;;;;;22.20;16.50;;;2.60;99.90;;;;;;5085615;28;20207;-61
2021/12/21 13:15:01;;;;;;;33.67;16.53;;;2.60;99.90;;;;;;5089899;28;20184;-60
2021/12/21 13:17:28;;;;;;;20.83;15.00;;;2.50;99.90;;;;;;5086456;28;20594;-61
2021/12/21 13:19:54;;;;;;;29.20;18.17;;;2.70;99.90;;;;;;5056103;28;20299;-60
2021/12/21 13:22:25;;;;;;;30.27;17.00;;;2.80;99.90;;;;;;5063355;28;20546;-60
2021/12/21 13:24:52;;;;;;;22.90;15.40;;;2.70;99.90;;;;;;5092747;28;20185;-60
2021/12/21 13:27:20;;;;;;;23.33;15.13;;;2.70;99.90;;;;;;5075983;28;20217;-60
2021/12/21 13:29:47;;;;;;;20.70;16.03;;;2.60;99.90;;;;;;5084524;28;20528;-61
2021/12/21 13:32:17;;;;;;;28.50;16.57;;;2.60;99.90;;;;;;5092408;28;20551;-64
2021/12/21 13:34:45;;;;;;;24.63;16.67;;;2.90;99.90;;;;;;5092548;28;20172;-62
2021/12/21 13:37:13;;;;;;;21.93;14.90;;;2.90;99.90;;;;;;5092729;28;20193;-60
2021/12/21 13:39:45;;;;;;;22.03;15.17;;;2.90;99.90;;;;;;5070791;28;20181;-61
2021/12/21 13:42:18;;;;;;;23.83;14.27;;;2.90;99.90;;;;;;5091521;28;20609;-61
2021/12/21 13:44:55;;;;;;;20.57;14.60;;;2.80;99.90;;;;;;5092934;28;20693;-62
2021/12/21 13:47:32;;;;;;;23.03;12.70;;;2.70;99.90;;;;;;5092759;28;20254;-62
2021/12/21 13:50:13;;;;;;;18.50;13.03;;;3.00;99.90;;;;;;5074292;28;20252;-62
2021/12/21 13:52:47;;;;;;;16.60;13.83;;;3.40;99.90;;;;;;5081888;28;20267;-62